sensor_id;sensor_type;location;lat;lon;timestamp;P1;durP1;ratioP1;P2;durP2;ratioP2
295;SDS011;132;48.770;9.200;2022-07-23T00:00:32;8.77;;;6.20;;
295;SDS011;132;48.770;9.200;2022-07-23T00:03:19;6.40;;;5.90;;
295;SDS011;132;48.770;9.200;2022-07-23T00:06:06;9.33;;;6.70;;
295;SDS011;132;48.770;9.200;2022-07-23T00:08:52;10.17;;;5.80;;
295;SDS011;132;48.770;9.200;2022-07-23T00:11:39;7.50;;;5.90;;
295;SDS011;132;48.770;9.200;2022-07-23T00:14:26;7.03;;;6.00;;
295;SDS011;132;48.770;9.200;2022-07-23T00:17:12;7.10;;;5.40;;
295;SDS011;132;48.770;9.200;2022-07-23T00:19:59;9.00;;;5.77;;
295;SDS011;132;48.770;9.200;2022-07-23T00:22:53;7.93;;;5.70;;
295;SDS011;132;48.770;9.200;2022-07-23T00:25:41;6.10;;;5.13;;
295;SDS011;132;48.770;9.200;2022-07-23T00:28:27;6.57;;;5.00;;
295;SDS011;132;48.770;9.200;2022-07-23T00:31:15;8.87;;;5.23;;
295;SDS011;132;48.770;9.200;2022-07-23T00:34:01;5.43;;;4.90;;
295;SDS011;132;48.770;9.200;2022-07-23T00:36:48;5.83;;;4.83;;
295;SDS011;132;48.770;9.200;2022-07-23T00:39:35;5.20;;;4.70;;
295;SDS011;132;48.770;9.200;2022-07-23T00:42:21;6.37;;;4.73;;
295;SDS011;132;48.770;9.200;2022-07-23T00:45:08;6.60;;;5.40;;
295;SDS011;132;48.770;9.200;2022-07-23T00:47:55;8.40;;;5.43;;
295;SDS011;132;48.770;9.200;2022-07-23T00:50:43;6.87;;;5.37;;
295;SDS011;132;48.770;9.200;2022-07-23T00:53:30;6.20;;;5.23;;
295;SDS011;132;48.770;9.200;2022-07-23T00:56:17;7.23;;;5.30;;
295;SDS011;132;48.770;9.200;2022-07-23T00:59:05;7.00;;;5.23;;
295;SDS011;132;48.770;9.200;2022-07-23T01:01:52;7.70;;;5.63;;
295;SDS011;132;48.770;9.200;2022-07-23T01:04:38;5.40;;;5.00;;
295;SDS011;132;48.770;9.200;2022-07-23T01:07:25;7.47;;;5.23;;
295;SDS011;132;48.770;9.200;2022-07-23T01:10:13;6.57;;;5.33;;
295;SDS011;132;48.770;9.200;2022-07-23T01:13:17;7.17;;;5.00;;
295;SDS011;132;48.770;9.200;2022-07-23T01:16:04;7.70;;;4.97;;
295;SDS011;132;48.770;9.200;2022-07-23T01:18:51;6.30;;;5.20;;
295;SDS011;132;48.770;9.200;2022-07-23T01:21:39;5.80;;;4.87;;
295;SDS011;132;48.770;9.200;2022-07-23T01:24:28;7.37;;;5.10;;
295;SDS011;132;48.770;9.200;2022-07-23T01:27:23;6.80;;;4.70;;
295;SDS011;132;48.770;9.200;2022-07-23T01:30:15;5.23;;;5.00;;
295;SDS011;132;48.770;9.200;2022-07-23T01:33:01;6.03;;;5.00;;
295;SDS011;132;48.770;9.200;2022-07-23T01:35:48;6.60;;;5.30;;
295;SDS011;132;48.770;9.200;2022-07-23T01:38:40;5.90;;;5.07;;
295;SDS011;132;48.770;9.200;2022-07-23T01:41:27;6.10;;;5.20;;
295;SDS011;132;48.770;9.200;2022-07-23T01:44:14;6.93;;;5.40;;
295;SDS011;132;48.770;9.200;2022-07-23T01:47:02;6.03;;;5.07;;
295;SDS011;132;48.770;9.200;2022-07-23T01:49:50;7.27;;;5.20;;
295;SDS011;132;48.770;9.200;2022-07-23T01:52:51;8.60;;;5.03;;
295;SDS011;132;48.770;9.200;2022-07-23T01:55:37;6.43;;;5.03;;
295;SDS011;132;48.770;9.200;2022-07-23T01:58:25;6.30;;;5.20;;
295;SDS011;132;48.770;9.200;2022-07-23T02:01:12;6.00;;;5.27;;
295;SDS011;132;48.770;9.200;2022-07-23T02:03:59;6.30;;;5.17;;
295;SDS011;132;48.770;9.200;2022-07-23T02:06:46;6.77;;;5.20;;
295;SDS011;132;48.770;9.200;2022-07-23T02:09:33;6.90;;;4.80;;
295;SDS011;132;48.770;9.200;2022-07-23T02:12:19;6.77;;;4.93;;
295;SDS011;132;48.770;9.200;2022-07-23T02:15:07;7.70;;;5.10;;
295;SDS011;132;48.770;9.200;2022-07-23T02:17:54;7.67;;;5.30;;
295;SDS011;132;48.770;9.200;2022-07-23T02:20:41;6.73;;;5.07;;
295;SDS011;132;48.770;9.200;2022-07-23T02:23:30;7.07;;;5.13;;
295;SDS011;132;48.770;9.200;2022-07-23T02:26:17;6.20;;;5.20;;
295;SDS011;132;48.770;9.200;2022-07-23T02:29:03;5.77;;;5.10;;
295;SDS011;132;48.770;9.200;2022-07-23T02:31:52;6.20;;;5.33;;
295;SDS011;132;48.770;9.200;2022-07-23T02:34:38;6.00;;;5.07;;
295;SDS011;132;48.770;9.200;2022-07-23T02:37:26;6.10;;;4.93;;
295;SDS011;132;48.770;9.200;2022-07-23T02:40:12;6.40;;;5.20;;
295;SDS011;132;48.770;9.200;2022-07-23T02:43:00;10.20;;;5.30;;
295;SDS011;132;48.770;9.200;2022-07-23T02:45:48;6.13;;;5.10;;
295;SDS011;132;48.770;9.200;2022-07-23T02:48:35;6.50;;;5.23;;
295;SDS011;132;48.770;9.200;2022-07-23T02:51:23;6.63;;;5.90;;
295;SDS011;132;48.770;9.200;2022-07-23T02:54:15;9.53;;;5.00;;
295;SDS011;132;48.770;9.200;2022-07-23T02:57:02;5.80;;;5.30;;
295;SDS011;132;48.770;9.200;2022-07-23T02:59:50;6.20;;;5.03;;
295;SDS011;132;48.770;9.200;2022-07-23T03:02:38;6.60;;;4.90;;
295;SDS011;132;48.770;9.200;2022-07-23T03:05:25;7.00;;;5.50;;
295;SDS011;132;48.770;9.200;2022-07-23T03:08:12;8.17;;;5.53;;
295;SDS011;132;48.770;9.200;2022-07-23T03:11:01;7.73;;;6.07;;
295;SDS011;132;48.770;9.200;2022-07-23T03:13:48;6.43;;;5.00;;
295;SDS011;132;48.770;9.200;2022-07-23T03:16:34;7.10;;;5.67;;
295;SDS011;132;48.770;9.200;2022-07-23T03:19:22;7.77;;;5.27;;
295;SDS011;132;48.770;9.200;2022-07-23T03:22:08;7.80;;;5.77;;
295;SDS011;132;48.770;9.200;2022-07-23T03:24:55;9.47;;;6.33;;
295;SDS011;132;48.770;9.200;2022-07-23T03:27:44;7.47;;;5.53;;
295;SDS011;132;48.770;9.200;2022-07-23T03:30:31;7.90;;;5.63;;
295;SDS011;132;48.770;9.200;2022-07-23T03:33:18;7.27;;;5.70;;
295;SDS011;132;48.770;9.200;2022-07-23T03:36:07;6.73;;;5.87;;
295;SDS011;132;48.770;9.200;2022-07-23T03:38:58;6.87;;;5.67;;
295;SDS011;132;48.770;9.200;2022-07-23T03:41:45;7.80;;;5.80;;
295;SDS011;132;48.770;9.200;2022-07-23T03:44:31;7.00;;;5.73;;
295;SDS011;132;48.770;9.200;2022-07-23T03:47:19;7.23;;;6.60;;
295;SDS011;132;48.770;9.200;2022-07-23T03:50:07;7.17;;;5.90;;
295;SDS011;132;48.770;9.200;2022-07-23T03:52:54;8.00;;;6.10;;
295;SDS011;132;48.770;9.200;2022-07-23T03:55:41;7.47;;;5.83;;
295;SDS011;132;48.770;9.200;2022-07-23T03:58:28;8.07;;;6.40;;
295;SDS011;132;48.770;9.200;2022-07-23T04:01:15;7.60;;;6.37;;
295;SDS011;132;48.770;9.200;2022-07-23T04:04:02;7.43;;;6.40;;
295;SDS011;132;48.770;9.200;2022-07-23T04:06:50;9.00;;;6.97;;
295;SDS011;132;48.770;9.200;2022-07-23T04:09:36;8.70;;;6.87;;
295;SDS011;132;48.770;9.200;2022-07-23T04:12:23;7.93;;;6.40;;
295;SDS011;132;48.770;9.200;2022-07-23T04:15:10;7.67;;;6.47;;
295;SDS011;132;48.770;9.200;2022-07-23T04:17:57;9.23;;;6.70;;
295;SDS011;132;48.770;9.200;2022-07-23T04:20:50;8.97;;;6.20;;
295;SDS011;132;48.770;9.200;2022-07-23T04:23:38;8.43;;;5.83;;
295;SDS011;132;48.770;9.200;2022-07-23T04:26:25;9.70;;;6.47;;
295;SDS011;132;48.770;9.200;2022-07-23T04:29:12;7.80;;;5.97;;
295;SDS011;132;48.770;9.200;2022-07-23T04:31:59;6.60;;;5.60;;
295;SDS011;132;48.770;9.200;2022-07-23T04:34:45;8.20;;;5.77;;
295;SDS011;132;48.770;9.200;2022-07-23T04:37:32;7.93;;;6.07;;
295;SDS011;132;48.770;9.200;2022-07-23T04:40:19;12.63;;;6.40;;
295;SDS011;132;48.770;9.200;2022-07-23T04:43:06;7.57;;;6.20;;
295;SDS011;132;48.770;9.200;2022-07-23T04:45:58;9.00;;;5.83;;
295;SDS011;132;48.770;9.200;2022-07-23T04:48:45;7.03;;;5.70;;
295;SDS011;132;48.770;9.200;2022-07-23T04:51:32;6.87;;;5.77;;
295;SDS011;132;48.770;9.200;2022-07-23T04:54:20;7.73;;;5.93;;
295;SDS011;132;48.770;9.200;2022-07-23T04:57:06;7.40;;;6.20;;
295;SDS011;132;48.770;9.200;2022-07-23T04:59:53;7.93;;;5.90;;
295;SDS011;132;48.770;9.200;2022-07-23T05:02:40;6.73;;;5.73;;
295;SDS011;132;48.770;9.200;2022-07-23T05:05:27;9.00;;;6.30;;
295;SDS011;132;48.770;9.200;2022-07-23T05:08:18;6.73;;;5.53;;
295;SDS011;132;48.770;9.200;2022-07-23T05:11:10;8.33;;;6.30;;
295;SDS011;132;48.770;9.200;2022-07-23T05:13:56;10.37;;;6.23;;
295;SDS011;132;48.770;9.200;2022-07-23T05:16:43;9.70;;;6.23;;
295;SDS011;132;48.770;9.200;2022-07-23T05:19:36;8.70;;;6.40;;
295;SDS011;132;48.770;9.200;2022-07-23T05:22:23;6.60;;;5.40;;
295;SDS011;132;48.770;9.200;2022-07-23T05:25:12;8.00;;;6.03;;
295;SDS011;132;48.770;9.200;2022-07-23T05:27:59;9.20;;;6.10;;
295;SDS011;132;48.770;9.200;2022-07-23T05:30:46;7.90;;;6.40;;
295;SDS011;132;48.770;9.200;2022-07-23T05:33:35;7.07;;;6.30;;
295;SDS011;132;48.770;9.200;2022-07-23T05:36:21;10.47;;;6.33;;
295;SDS011;132;48.770;9.200;2022-07-23T05:39:14;7.73;;;6.40;;
295;SDS011;132;48.770;9.200;2022-07-23T05:42:02;7.43;;;6.30;;
295;SDS011;132;48.770;9.200;2022-07-23T05:44:49;7.63;;;5.90;;
295;SDS011;132;48.770;9.200;2022-07-23T05:47:39;8.40;;;6.53;;
295;SDS011;132;48.770;9.200;2022-07-23T05:50:31;11.20;;;6.17;;
295;SDS011;132;48.770;9.200;2022-07-23T05:53:25;9.47;;;6.63;;
295;SDS011;132;48.770;9.200;2022-07-23T05:56:31;9.97;;;6.73;;
295;SDS011;132;48.770;9.200;2022-07-23T05:59:17;10.03;;;6.50;;
295;SDS011;132;48.770;9.200;2022-07-23T06:02:04;11.80;;;6.70;;
295;SDS011;132;48.770;9.200;2022-07-23T06:04:51;11.73;;;6.60;;
295;SDS011;132;48.770;9.200;2022-07-23T06:07:46;7.63;;;5.80;;
295;SDS011;132;48.770;9.200;2022-07-23T06:10:36;11.03;;;6.13;;
295;SDS011;132;48.770;9.200;2022-07-23T06:13:23;11.53;;;6.23;;
295;SDS011;132;48.770;9.200;2022-07-23T06:16:10;9.67;;;6.17;;
295;SDS011;132;48.770;9.200;2022-07-23T06:18:56;6.30;;;5.90;;
295;SDS011;132;48.770;9.200;2022-07-23T06:21:45;8.30;;;6.50;;
295;SDS011;132;48.770;9.200;2022-07-23T06:24:32;8.20;;;6.50;;
295;SDS011;132;48.770;9.200;2022-07-23T06:27:19;8.27;;;6.70;;
295;SDS011;132;48.770;9.200;2022-07-23T06:30:06;10.93;;;6.47;;
295;SDS011;132;48.770;9.200;2022-07-23T06:32:54;10.20;;;7.20;;
295;SDS011;132;48.770;9.200;2022-07-23T06:35:40;7.73;;;7.10;;
295;SDS011;132;48.770;9.200;2022-07-23T06:38:27;8.37;;;6.20;;
295;SDS011;132;48.770;9.200;2022-07-23T06:41:16;7.70;;;6.50;;
295;SDS011;132;48.770;9.200;2022-07-23T06:44:03;9.13;;;6.77;;
295;SDS011;132;48.770;9.200;2022-07-23T06:46:51;9.00;;;6.70;;
295;SDS011;132;48.770;9.200;2022-07-23T06:49:38;8.13;;;6.63;;
295;SDS011;132;48.770;9.200;2022-07-23T06:52:27;9.03;;;6.30;;
295;SDS011;132;48.770;9.200;2022-07-23T06:55:13;11.27;;;6.80;;
295;SDS011;132;48.770;9.200;2022-07-23T06:58:00;7.70;;;6.90;;
295;SDS011;132;48.770;9.200;2022-07-23T07:00:46;7.87;;;6.40;;
295;SDS011;132;48.770;9.200;2022-07-23T07:03:33;8.37;;;6.90;;
295;SDS011;132;48.770;9.200;2022-07-23T07:06:20;9.87;;;7.43;;
295;SDS011;132;48.770;9.200;2022-07-23T07:09:06;8.70;;;7.10;;
295;SDS011;132;48.770;9.200;2022-07-23T07:11:53;9.23;;;7.27;;
295;SDS011;132;48.770;9.200;2022-07-23T07:14:40;8.10;;;6.50;;
295;SDS011;132;48.770;9.200;2022-07-23T07:17:27;8.03;;;6.83;;
295;SDS011;132;48.770;9.200;2022-07-23T07:20:14;10.00;;;6.63;;
295;SDS011;132;48.770;9.200;2022-07-23T07:23:00;8.83;;;6.80;;
295;SDS011;132;48.770;9.200;2022-07-23T07:25:47;8.43;;;6.53;;
295;SDS011;132;48.770;9.200;2022-07-23T07:28:33;6.87;;;5.93;;
295;SDS011;132;48.770;9.200;2022-07-23T07:31:20;8.30;;;6.13;;
295;SDS011;132;48.770;9.200;2022-07-23T07:34:07;8.07;;;6.53;;
295;SDS011;132;48.770;9.200;2022-07-23T07:36:53;10.60;;;7.50;;
295;SDS011;132;48.770;9.200;2022-07-23T07:39:40;9.30;;;6.60;;
295;SDS011;132;48.770;9.200;2022-07-23T07:42:27;10.00;;;7.43;;
295;SDS011;132;48.770;9.200;2022-07-23T07:45:13;10.50;;;7.60;;
295;SDS011;132;48.770;9.200;2022-07-23T07:48:01;9.67;;;6.93;;
295;SDS011;132;48.770;9.200;2022-07-23T07:50:47;9.50;;;7.50;;
295;SDS011;132;48.770;9.200;2022-07-23T07:53:34;9.13;;;7.30;;
295;SDS011;132;48.770;9.200;2022-07-23T07:56:21;12.27;;;7.43;;
295;SDS011;132;48.770;9.200;2022-07-23T07:59:07;16.27;;;7.10;;
295;SDS011;132;48.770;9.200;2022-07-23T08:01:54;9.10;;;7.10;;
295;SDS011;132;48.770;9.200;2022-07-23T08:04:41;7.53;;;6.97;;
295;SDS011;132;48.770;9.200;2022-07-23T08:07:27;9.00;;;7.27;;
295;SDS011;132;48.770;9.200;2022-07-23T08:10:14;9.03;;;7.20;;
295;SDS011;132;48.770;9.200;2022-07-23T08:13:01;8.83;;;7.17;;
295;SDS011;132;48.770;9.200;2022-07-23T08:15:48;9.43;;;6.90;;
295;SDS011;132;48.770;9.200;2022-07-23T08:18:35;8.20;;;6.60;;
295;SDS011;132;48.770;9.200;2022-07-23T08:21:21;6.80;;;6.10;;
295;SDS011;132;48.770;9.200;2022-07-23T08:24:08;8.90;;;6.67;;
295;SDS011;132;48.770;9.200;2022-07-23T08:26:55;7.57;;;6.50;;
295;SDS011;132;48.770;9.200;2022-07-23T08:29:41;9.00;;;6.80;;
295;SDS011;132;48.770;9.200;2022-07-23T08:32:28;10.83;;;6.80;;
295;SDS011;132;48.770;9.200;2022-07-23T08:35:15;9.90;;;6.97;;
295;SDS011;132;48.770;9.200;2022-07-23T08:38:06;11.97;;;6.77;;
295;SDS011;132;48.770;9.200;2022-07-23T08:40:54;8.27;;;6.87;;
295;SDS011;132;48.770;9.200;2022-07-23T08:43:45;7.47;;;5.80;;
295;SDS011;132;48.770;9.200;2022-07-23T08:46:32;6.90;;;6.47;;
295;SDS011;132;48.770;9.200;2022-07-23T08:49:19;8.50;;;6.60;;
295;SDS011;132;48.770;9.200;2022-07-23T08:52:07;7.43;;;6.27;;
295;SDS011;132;48.770;9.200;2022-07-23T08:54:57;7.80;;;6.37;;
295;SDS011;132;48.770;9.200;2022-07-23T08:57:46;6.87;;;5.73;;
295;SDS011;132;48.770;9.200;2022-07-23T09:00:34;9.07;;;7.10;;
295;SDS011;132;48.770;9.200;2022-07-23T09:03:22;8.67;;;7.20;;
295;SDS011;132;48.770;9.200;2022-07-23T09:06:10;8.27;;;6.53;;
295;SDS011;132;48.770;9.200;2022-07-23T09:08:57;8.00;;;7.03;;
295;SDS011;132;48.770;9.200;2022-07-23T09:11:47;9.53;;;7.30;;
295;SDS011;132;48.770;9.200;2022-07-23T09:14:47;9.73;;;7.03;;
295;SDS011;132;48.770;9.200;2022-07-23T09:17:38;8.73;;;7.00;;
295;SDS011;132;48.770;9.200;2022-07-23T09:20:26;8.20;;;7.33;;
295;SDS011;132;48.770;9.200;2022-07-23T09:23:14;7.93;;;7.40;;
295;SDS011;132;48.770;9.200;2022-07-23T09:26:01;8.63;;;6.80;;
295;SDS011;132;48.770;9.200;2022-07-23T09:28:51;10.47;;;7.10;;
295;SDS011;132;48.770;9.200;2022-07-23T09:31:55;9.47;;;7.70;;
295;SDS011;132;48.770;9.200;2022-07-23T09:34:43;7.60;;;6.90;;
295;SDS011;132;48.770;9.200;2022-07-23T09:37:35;8.40;;;6.50;;
295;SDS011;132;48.770;9.200;2022-07-23T09:40:22;8.07;;;6.30;;
295;SDS011;132;48.770;9.200;2022-07-23T09:43:09;8.57;;;6.07;;
295;SDS011;132;48.770;9.200;2022-07-23T09:46:16;7.50;;;6.47;;
295;SDS011;132;48.770;9.200;2022-07-23T09:49:18;8.73;;;6.67;;
295;SDS011;132;48.770;9.200;2022-07-23T09:52:06;7.30;;;6.27;;
295;SDS011;132;48.770;9.200;2022-07-23T09:54:57;6.40;;;6.03;;
295;SDS011;132;48.770;9.200;2022-07-23T09:57:46;7.97;;;6.70;;
295;SDS011;132;48.770;9.200;2022-07-23T10:00:36;9.50;;;6.73;;
295;SDS011;132;48.770;9.200;2022-07-23T10:03:23;13.50;;;6.87;;
295;SDS011;132;48.770;9.200;2022-07-23T10:06:29;7.13;;;6.10;;
295;SDS011;132;48.770;9.200;2022-07-23T10:09:37;8.30;;;7.43;;
295;SDS011;132;48.770;9.200;2022-07-23T10:12:48;8.03;;;6.47;;
295;SDS011;132;48.770;9.200;2022-07-23T10:15:39;10.63;;;6.50;;
295;SDS011;132;48.770;9.200;2022-07-23T10:18:27;8.77;;;7.57;;
295;SDS011;132;48.770;9.200;2022-07-23T10:21:18;9.10;;;7.20;;
295;SDS011;132;48.770;9.200;2022-07-23T10:34:02;9.10;;;7.50;;
295;SDS011;132;48.770;9.200;2022-07-23T10:39:35;12.07;;;7.17;;
295;SDS011;132;48.770;9.200;2022-07-23T10:42:26;8.93;;;7.20;;
295;SDS011;132;48.770;9.200;2022-07-23T10:48:26;7.73;;;6.40;;
295;SDS011;132;48.770;9.200;2022-07-23T10:51:14;7.07;;;6.40;;
295;SDS011;132;48.770;9.200;2022-07-23T10:54:01;8.77;;;6.37;;
295;SDS011;132;48.770;9.200;2022-07-23T10:56:49;8.40;;;6.20;;
295;SDS011;132;48.770;9.200;2022-07-23T11:02:55;8.80;;;6.17;;
295;SDS011;132;48.770;9.200;2022-07-23T11:05:44;7.63;;;5.90;;
295;SDS011;132;48.770;9.200;2022-07-23T11:08:32;6.57;;;6.13;;
295;SDS011;132;48.770;9.200;2022-07-23T15:42:46;884.17;;;842.00;;
295;SDS011;132;48.770;9.200;2022-07-23T15:45:33;629.83;;;599.77;;
295;SDS011;132;48.770;9.200;2022-07-23T15:48:20;904.80;;;861.67;;
295;SDS011;132;48.770;9.200;2022-07-23T15:51:07;638.40;;;607.93;;
295;SDS011;132;48.770;9.200;2022-07-23T15:53:54;96.10;;;91.47;;
295;SDS011;132;48.770;9.200;2022-07-23T15:56:41;212.60;;;202.47;;
295;SDS011;132;48.770;9.200;2022-07-23T15:59:27;156.83;;;149.33;;
295;SDS011;132;48.770;9.200;2022-07-23T16:02:14;8.87;;;8.17;;
295;SDS011;132;48.770;9.200;2022-07-23T16:05:02;16.27;;;15.27;;
295;SDS011;132;48.770;9.200;2022-07-23T16:07:49;9.53;;;7.87;;
295;SDS011;132;48.770;9.200;2022-07-23T16:10:36;11.27;;;9.47;;
295;SDS011;132;48.770;9.200;2022-07-23T16:13:23;8.30;;;7.10;;
295;SDS011;132;48.770;9.200;2022-07-23T16:16:11;9.93;;;7.80;;
295;SDS011;132;48.770;9.200;2022-07-23T16:18:57;14.37;;;9.40;;
295;SDS011;132;48.770;9.200;2022-07-23T16:21:44;10.77;;;8.73;;
295;SDS011;132;48.770;9.200;2022-07-23T16:24:31;9.33;;;8.10;;
295;SDS011;132;48.770;9.200;2022-07-23T16:27:17;7.90;;;7.23;;
295;SDS011;132;48.770;9.200;2022-07-23T16:30:04;10.37;;;8.10;;
295;SDS011;132;48.770;9.200;2022-07-23T16:32:52;8.10;;;7.67;;
295;SDS011;132;48.770;9.200;2022-07-23T16:35:39;8.60;;;7.87;;
295;SDS011;132;48.770;9.200;2022-07-23T16:38:25;12.47;;;8.50;;
295;SDS011;132;48.770;9.200;2022-07-23T16:41:12;10.43;;;8.57;;
295;SDS011;132;48.770;9.200;2022-07-23T16:43:59;15.30;;;8.13;;
295;SDS011;132;48.770;9.200;2022-07-23T16:46:45;10.40;;;7.80;;
295;SDS011;132;48.770;9.200;2022-07-23T16:49:32;15.53;;;7.90;;
295;SDS011;132;48.770;9.200;2022-07-23T16:52:20;10.80;;;8.50;;
295;SDS011;132;48.770;9.200;2022-07-23T16:55:07;10.60;;;8.60;;
295;SDS011;132;48.770;9.200;2022-07-23T16:57:54;11.60;;;8.37;;
295;SDS011;132;48.770;9.200;2022-07-23T17:00:40;13.97;;;9.47;;
295;SDS011;132;48.770;9.200;2022-07-23T17:03:27;11.80;;;8.40;;
295;SDS011;132;48.770;9.200;2022-07-23T17:06:15;11.60;;;8.70;;
295;SDS011;132;48.770;9.200;2022-07-23T17:09:02;13.90;;;8.60;;
295;SDS011;132;48.770;9.200;2022-07-23T17:11:50;11.40;;;8.90;;
295;SDS011;132;48.770;9.200;2022-07-23T17:14:36;10.93;;;9.30;;
295;SDS011;132;48.770;9.200;2022-07-23T17:17:23;13.43;;;9.00;;
295;SDS011;132;48.770;9.200;2022-07-23T17:20:10;12.03;;;9.20;;
295;SDS011;132;48.770;9.200;2022-07-23T17:22:57;14.03;;;9.10;;
295;SDS011;132;48.770;9.200;2022-07-23T17:25:43;10.57;;;9.10;;
295;SDS011;132;48.770;9.200;2022-07-23T17:28:30;11.40;;;9.60;;
295;SDS011;132;48.770;9.200;2022-07-23T17:31:17;13.13;;;8.83;;
295;SDS011;132;48.770;9.200;2022-07-23T17:34:04;10.47;;;9.40;;
295;SDS011;132;48.770;9.200;2022-07-23T17:36:50;15.13;;;10.30;;
295;SDS011;132;48.770;9.200;2022-07-23T17:39:37;11.30;;;9.87;;
295;SDS011;132;48.770;9.200;2022-07-23T17:42:24;9.90;;;9.13;;
295;SDS011;132;48.770;9.200;2022-07-23T17:45:10;11.23;;;9.53;;
295;SDS011;132;48.770;9.200;2022-07-23T17:48:00;13.13;;;10.37;;
295;SDS011;132;48.770;9.200;2022-07-23T17:50:47;12.43;;;9.77;;
295;SDS011;132;48.770;9.200;2022-07-23T17:53:34;11.37;;;9.93;;
295;SDS011;132;48.770;9.200;2022-07-23T17:56:20;14.60;;;10.10;;
295;SDS011;132;48.770;9.200;2022-07-23T17:59:07;22.70;;;15.60;;
295;SDS011;132;48.770;9.200;2022-07-23T18:01:54;15.70;;;9.50;;
295;SDS011;132;48.770;9.200;2022-07-23T18:04:41;13.30;;;9.40;;
295;SDS011;132;48.770;9.200;2022-07-23T18:07:28;14.10;;;9.50;;
295;SDS011;132;48.770;9.200;2022-07-23T18:10:14;15.80;;;10.00;;
295;SDS011;132;48.770;9.200;2022-07-23T18:13:02;13.07;;;10.03;;
295;SDS011;132;48.770;9.200;2022-07-23T18:15:50;12.03;;;10.27;;
295;SDS011;132;48.770;9.200;2022-07-23T18:18:37;12.23;;;10.00;;
295;SDS011;132;48.770;9.200;2022-07-23T18:21:23;14.60;;;10.30;;
295;SDS011;132;48.770;9.200;2022-07-23T18:24:10;13.47;;;10.43;;
295;SDS011;132;48.770;9.200;2022-07-23T18:26:57;14.00;;;10.00;;
295;SDS011;132;48.770;9.200;2022-07-23T18:29:43;15.43;;;10.43;;
295;SDS011;132;48.770;9.200;2022-07-23T18:32:30;13.70;;;10.73;;
295;SDS011;132;48.770;9.200;2022-07-23T18:35:17;13.97;;;10.30;;
295;SDS011;132;48.770;9.200;2022-07-23T18:38:03;12.20;;;9.80;;
295;SDS011;132;48.770;9.200;2022-07-23T18:40:50;14.07;;;10.40;;
295;SDS011;132;48.770;9.200;2022-07-23T18:43:38;15.70;;;10.07;;
295;SDS011;132;48.770;9.200;2022-07-23T18:46:25;12.20;;;9.80;;
295;SDS011;132;48.770;9.200;2022-07-23T18:49:12;13.97;;;10.27;;
295;SDS011;132;48.770;9.200;2022-07-23T18:51:59;14.17;;;10.97;;
295;SDS011;132;48.770;9.200;2022-07-23T18:54:46;14.00;;;10.70;;
295;SDS011;132;48.770;9.200;2022-07-23T18:57:33;14.57;;;10.37;;
295;SDS011;132;48.770;9.200;2022-07-23T19:00:19;10.90;;;9.33;;
295;SDS011;132;48.770;9.200;2022-07-23T19:03:06;12.00;;;9.30;;
295;SDS011;132;48.770;9.200;2022-07-23T19:05:52;12.13;;;10.03;;
295;SDS011;132;48.770;9.200;2022-07-23T19:08:39;16.33;;;9.90;;
295;SDS011;132;48.770;9.200;2022-07-23T19:11:26;13.20;;;10.47;;
295;SDS011;132;48.770;9.200;2022-07-23T19:14:13;16.33;;;9.87;;
295;SDS011;132;48.770;9.200;2022-07-23T19:17:00;14.47;;;9.87;;
295;SDS011;132;48.770;9.200;2022-07-23T19:19:46;12.57;;;10.60;;
295;SDS011;132;48.770;9.200;2022-07-23T19:22:33;14.50;;;10.43;;
295;SDS011;132;48.770;9.200;2022-07-23T19:25:20;15.23;;;10.70;;
295;SDS011;132;48.770;9.200;2022-07-23T19:28:07;13.43;;;10.50;;
295;SDS011;132;48.770;9.200;2022-07-23T19:30:53;12.10;;;10.00;;
295;SDS011;132;48.770;9.200;2022-07-23T19:33:40;13.27;;;10.03;;
295;SDS011;132;48.770;9.200;2022-07-23T19:36:27;11.57;;;9.73;;
295;SDS011;132;48.770;9.200;2022-07-23T19:39:13;13.30;;;10.13;;
295;SDS011;132;48.770;9.200;2022-07-23T19:42:00;13.53;;;10.03;;
295;SDS011;132;48.770;9.200;2022-07-23T19:44:46;13.47;;;10.27;;
295;SDS011;132;48.770;9.200;2022-07-23T19:47:33;11.50;;;9.23;;
295;SDS011;132;48.770;9.200;2022-07-23T19:50:21;13.33;;;9.90;;
295;SDS011;132;48.770;9.200;2022-07-23T19:53:09;12.40;;;10.10;;
295;SDS011;132;48.770;9.200;2022-07-23T19:55:55;13.03;;;10.07;;
295;SDS011;132;48.770;9.200;2022-07-23T19:58:42;12.40;;;9.73;;
295;SDS011;132;48.770;9.200;2022-07-23T20:01:29;16.30;;;10.27;;
295;SDS011;132;48.770;9.200;2022-07-23T20:04:16;14.23;;;11.70;;
295;SDS011;132;48.770;9.200;2022-07-23T20:07:03;14.17;;;12.20;;
295;SDS011;132;48.770;9.200;2022-07-23T20:09:50;13.97;;;11.00;;
295;SDS011;132;48.770;9.200;2022-07-23T20:12:39;14.30;;;12.07;;
295;SDS011;132;48.770;9.200;2022-07-23T20:15:26;14.80;;;11.10;;
295;SDS011;132;48.770;9.200;2022-07-23T20:18:14;12.83;;;9.97;;
295;SDS011;132;48.770;9.200;2022-07-23T20:21:02;13.53;;;10.73;;
295;SDS011;132;48.770;9.200;2022-07-23T20:23:49;15.90;;;10.90;;
295;SDS011;132;48.770;9.200;2022-07-23T20:26:36;15.20;;;11.60;;
295;SDS011;132;48.770;9.200;2022-07-23T20:29:22;14.50;;;11.47;;
295;SDS011;132;48.770;9.200;2022-07-23T20:32:09;14.90;;;10.30;;
295;SDS011;132;48.770;9.200;2022-07-23T20:34:56;12.57;;;9.60;;
295;SDS011;132;48.770;9.200;2022-07-23T20:37:43;13.13;;;10.03;;
295;SDS011;132;48.770;9.200;2022-07-23T20:40:29;12.17;;;10.17;;
295;SDS011;132;48.770;9.200;2022-07-23T20:43:16;13.13;;;10.07;;
295;SDS011;132;48.770;9.200;2022-07-23T20:46:02;13.00;;;10.90;;
295;SDS011;132;48.770;9.200;2022-07-23T20:48:49;14.07;;;10.57;;
295;SDS011;132;48.770;9.200;2022-07-23T20:51:36;19.50;;;13.90;;
295;SDS011;132;48.770;9.200;2022-07-23T20:54:23;20.83;;;12.80;;
295;SDS011;132;48.770;9.200;2022-07-23T20:57:09;14.13;;;11.50;;
295;SDS011;132;48.770;9.200;2022-07-23T20:59:56;15.10;;;11.50;;
295;SDS011;132;48.770;9.200;2022-07-23T21:02:43;16.73;;;12.10;;
295;SDS011;132;48.770;9.200;2022-07-23T21:05:29;15.77;;;11.27;;
295;SDS011;132;48.770;9.200;2022-07-23T21:08:16;15.97;;;12.00;;
295;SDS011;132;48.770;9.200;2022-07-23T21:11:03;15.40;;;12.20;;
295;SDS011;132;48.770;9.200;2022-07-23T21:13:50;17.90;;;11.33;;
295;SDS011;132;48.770;9.200;2022-07-23T21:16:36;14.23;;;11.73;;
295;SDS011;132;48.770;9.200;2022-07-23T21:19:23;13.67;;;11.30;;
295;SDS011;132;48.770;9.200;2022-07-23T21:22:10;15.50;;;11.47;;
295;SDS011;132;48.770;9.200;2022-07-23T21:24:57;15.43;;;11.77;;
295;SDS011;132;48.770;9.200;2022-07-23T21:27:44;14.57;;;11.50;;
295;SDS011;132;48.770;9.200;2022-07-23T21:30:30;13.70;;;11.03;;
295;SDS011;132;48.770;9.200;2022-07-23T21:33:17;14.57;;;10.97;;
295;SDS011;132;48.770;9.200;2022-07-23T21:36:04;12.87;;;10.20;;
295;SDS011;132;48.770;9.200;2022-07-23T21:38:51;13.20;;;10.43;;
295;SDS011;132;48.770;9.200;2022-07-23T21:41:38;13.20;;;9.97;;
295;SDS011;132;48.770;9.200;2022-07-23T21:44:24;15.10;;;10.60;;
295;SDS011;132;48.770;9.200;2022-07-23T21:47:11;18.93;;;11.53;;
295;SDS011;132;48.770;9.200;2022-07-23T21:49:58;14.63;;;10.80;;
295;SDS011;132;48.770;9.200;2022-07-23T21:52:44;13.37;;;11.33;;
295;SDS011;132;48.770;9.200;2022-07-23T21:55:32;14.63;;;11.50;;
295;SDS011;132;48.770;9.200;2022-07-23T21:58:19;14.93;;;10.13;;
295;SDS011;132;48.770;9.200;2022-07-23T22:01:05;11.70;;;10.30;;
295;SDS011;132;48.770;9.200;2022-07-23T22:03:52;11.73;;;10.43;;
295;SDS011;132;48.770;9.200;2022-07-23T22:06:38;14.43;;;9.93;;
295;SDS011;132;48.770;9.200;2022-07-23T22:09:25;13.60;;;10.37;;
295;SDS011;132;48.770;9.200;2022-07-23T22:12:12;12.77;;;10.97;;
295;SDS011;132;48.770;9.200;2022-07-23T22:14:58;12.90;;;10.70;;
295;SDS011;132;48.770;9.200;2022-07-23T22:17:45;13.63;;;10.57;;
295;SDS011;132;48.770;9.200;2022-07-23T22:20:32;11.60;;;10.37;;
295;SDS011;132;48.770;9.200;2022-07-23T22:23:19;13.30;;;10.53;;
295;SDS011;132;48.770;9.200;2022-07-23T22:26:06;13.73;;;10.60;;
295;SDS011;132;48.770;9.200;2022-07-23T22:28:52;15.27;;;10.73;;
295;SDS011;132;48.770;9.200;2022-07-23T22:31:39;13.87;;;11.00;;
295;SDS011;132;48.770;9.200;2022-07-23T22:34:26;18.70;;;12.40;;